sensor_id;sensor_type;location;lat;lon;timestamp;P1;durP1;ratioP1;P2;durP2;ratioP2
57651;SDS011;43480;53.116;6.734;2024-03-08T00:00:43;39.60;;;23.23;;
57651;SDS011;43480;53.116;6.734;2024-03-08T00:03:08;41.25;;;25.00;;
57651;SDS011;43480;53.116;6.734;2024-03-08T00:05:35;41.30;;;23.98;;
57651;SDS011;43480;53.116;6.734;2024-03-08T00:08:04;38.90;;;23.65;;
57651;SDS011;43480;53.116;6.734;2024-03-08T00:10:31;45.45;;;26.58;;
57651;SDS011;43480;53.116;6.734;2024-03-08T00:12:57;44.15;;;24.98;;
57651;SDS011;43480;53.116;6.734;2024-03-08T00:15:23;44.92;;;25.70;;
57651;SDS011;43480;53.116;6.734;2024-03-08T00:17:49;46.83;;;26.02;;
57651;SDS011;43480;53.116;6.734;2024-03-08T00:20:16;48.60;;;26.10;;
57651;SDS011;43480;53.116;6.734;2024-03-08T00:22:43;45.08;;;26.85;;
57651;SDS011;43480;53.116;6.734;2024-03-08T00:25:09;47.17;;;26.25;;
57651;SDS011;43480;53.116;6.734;2024-03-08T00:27:35;47.17;;;27.90;;
57651;SDS011;43480;53.116;6.734;2024-03-08T00:30:03;47.67;;;27.88;;
57651;SDS011;43480;53.116;6.734;2024-03-08T00:32:30;46.97;;;25.95;;
57651;SDS011;43480;53.116;6.734;2024-03-08T00:34:57;47.35;;;25.25;;
57651;SDS011;43480;53.116;6.734;2024-03-08T00:37:23;49.95;;;27.45;;
57651;SDS011;43480;53.116;6.734;2024-03-08T00:39:50;47.13;;;27.77;;
57651;SDS011;43480;53.116;6.734;2024-03-08T00:42:17;46.55;;;27.38;;
57651;SDS011;43480;53.116;6.734;2024-03-08T00:44:43;48.22;;;26.92;;
57651;SDS011;43480;53.116;6.734;2024-03-08T00:47:09;49.83;;;26.77;;
57651;SDS011;43480;53.116;6.734;2024-03-08T00:49:35;52.08;;;27.60;;
57651;SDS011;43480;53.116;6.734;2024-03-08T00:52:03;46.88;;;24.92;;
57651;SDS011;43480;53.116;6.734;2024-03-08T00:54:36;44.05;;;25.77;;
57651;SDS011;43480;53.116;6.734;2024-03-08T00:57:02;46.17;;;26.52;;
57651;SDS011;43480;53.116;6.734;2024-03-08T00:59:29;50.13;;;27.17;;
57651;SDS011;43480;53.116;6.734;2024-03-08T01:01:58;48.65;;;26.75;;
57651;SDS011;43480;53.116;6.734;2024-03-08T01:04:25;45.47;;;24.02;;
57651;SDS011;43480;53.116;6.734;2024-03-08T01:06:54;46.53;;;27.67;;
57651;SDS011;43480;53.116;6.734;2024-03-08T01:09:26;43.40;;;24.67;;
57651;SDS011;43480;53.116;6.734;2024-03-08T01:11:55;42.75;;;25.73;;
57651;SDS011;43480;53.116;6.734;2024-03-08T01:14:22;50.08;;;26.95;;
57651;SDS011;43480;53.116;6.734;2024-03-08T01:16:49;46.33;;;27.70;;
57651;SDS011;43480;53.116;6.734;2024-03-08T01:19:15;46.35;;;26.48;;
57651;SDS011;43480;53.116;6.734;2024-03-08T01:21:41;52.28;;;28.52;;
57651;SDS011;43480;53.116;6.734;2024-03-08T01:24:07;49.03;;;28.00;;
57651;SDS011;43480;53.116;6.734;2024-03-08T01:26:33;50.00;;;26.73;;
57651;SDS011;43480;53.116;6.734;2024-03-08T01:29:02;44.55;;;27.02;;
57651;SDS011;43480;53.116;6.734;2024-03-08T01:31:31;44.58;;;26.23;;
57651;SDS011;43480;53.116;6.734;2024-03-08T01:33:57;46.03;;;26.23;;
57651;SDS011;43480;53.116;6.734;2024-03-08T01:36:24;45.38;;;26.13;;
57651;SDS011;43480;53.116;6.734;2024-03-08T01:38:50;48.33;;;27.80;;
57651;SDS011;43480;53.116;6.734;2024-03-08T01:41:16;54.28;;;26.98;;
57651;SDS011;43480;53.116;6.734;2024-03-08T01:43:43;45.65;;;24.95;;
57651;SDS011;43480;53.116;6.734;2024-03-08T01:46:09;49.20;;;27.42;;
57651;SDS011;43480;53.116;6.734;2024-03-08T01:48:38;47.33;;;27.58;;
57651;SDS011;43480;53.116;6.734;2024-03-08T01:51:06;50.67;;;28.17;;
57651;SDS011;43480;53.116;6.734;2024-03-08T01:53:32;50.05;;;26.60;;
57651;SDS011;43480;53.116;6.734;2024-03-08T01:55:59;45.50;;;25.60;;
57651;SDS011;43480;53.116;6.734;2024-03-08T01:58:27;48.42;;;27.30;;
57651;SDS011;43480;53.116;6.734;2024-03-08T02:00:54;56.17;;;27.17;;
57651;SDS011;43480;53.116;6.734;2024-03-08T02:03:22;49.72;;;26.77;;
57651;SDS011;43480;53.116;6.734;2024-03-08T02:05:48;51.97;;;25.95;;
57651;SDS011;43480;53.116;6.734;2024-03-08T02:08:14;45.53;;;26.60;;
57651;SDS011;43480;53.116;6.734;2024-03-08T02:10:41;51.03;;;26.88;;
57651;SDS011;43480;53.116;6.734;2024-03-08T02:13:08;44.70;;;27.02;;
57651;SDS011;43480;53.116;6.734;2024-03-08T02:18:20;41.97;;;24.67;;
57651;SDS011;43480;53.116;6.734;2024-03-08T02:20:47;49.33;;;28.10;;
57651;SDS011;43480;53.116;6.734;2024-03-08T02:23:17;45.08;;;28.10;;
57651;SDS011;43480;53.116;6.734;2024-03-08T02:25:43;49.10;;;26.15;;
57651;SDS011;43480;53.116;6.734;2024-03-08T02:28:10;45.20;;;25.85;;
57651;SDS011;43480;53.116;6.734;2024-03-08T02:30:37;46.00;;;27.20;;
57651;SDS011;43480;53.116;6.734;2024-03-08T02:33:03;45.90;;;27.85;;
57651;SDS011;43480;53.116;6.734;2024-03-08T02:35:34;45.83;;;25.98;;
57651;SDS011;43480;53.116;6.734;2024-03-08T02:38:01;48.75;;;27.17;;
57651;SDS011;43480;53.116;6.734;2024-03-08T02:40:28;44.35;;;25.88;;
57651;SDS011;43480;53.116;6.734;2024-03-08T02:42:54;43.88;;;25.05;;
57651;SDS011;43480;53.116;6.734;2024-03-08T02:45:20;44.00;;;24.88;;
57651;SDS011;43480;53.116;6.734;2024-03-08T02:47:46;44.45;;;26.02;;
57651;SDS011;43480;53.116;6.734;2024-03-08T02:50:14;48.85;;;26.13;;
57651;SDS011;43480;53.116;6.734;2024-03-08T02:52:41;45.85;;;25.23;;
57651;SDS011;43480;53.116;6.734;2024-03-08T02:55:08;46.22;;;26.35;;
57651;SDS011;43480;53.116;6.734;2024-03-08T02:57:35;44.72;;;25.40;;
57651;SDS011;43480;53.116;6.734;2024-03-08T03:00:02;43.33;;;24.33;;
57651;SDS011;43480;53.116;6.734;2024-03-08T03:02:29;48.17;;;25.45;;
57651;SDS011;43480;53.116;6.734;2024-03-08T03:04:55;42.03;;;25.13;;
57651;SDS011;43480;53.116;6.734;2024-03-08T03:07:21;48.65;;;24.13;;
57651;SDS011;43480;53.116;6.734;2024-03-08T03:09:47;45.55;;;24.77;;
57651;SDS011;43480;53.116;6.734;2024-03-08T03:12:13;40.60;;;24.67;;
57651;SDS011;43480;53.116;6.734;2024-03-08T03:14:39;49.67;;;26.90;;
57651;SDS011;43480;53.116;6.734;2024-03-08T03:17:05;43.97;;;24.20;;
57651;SDS011;43480;53.116;6.734;2024-03-08T03:19:30;42.00;;;24.98;;
57651;SDS011;43480;53.116;6.734;2024-03-08T03:21:56;44.20;;;24.40;;
57651;SDS011;43480;53.116;6.734;2024-03-08T03:24:22;39.92;;;24.83;;
57651;SDS011;43480;53.116;6.734;2024-03-08T03:26:48;44.03;;;25.13;;
57651;SDS011;43480;53.116;6.734;2024-03-08T03:29:14;46.30;;;25.00;;
57651;SDS011;43480;53.116;6.734;2024-03-08T03:31:42;41.35;;;25.75;;
57651;SDS011;43480;53.116;6.734;2024-03-08T03:34:11;41.40;;;23.88;;
57651;SDS011;43480;53.116;6.734;2024-03-08T03:36:38;44.33;;;24.15;;
57651;SDS011;43480;53.116;6.734;2024-03-08T03:39:10;40.10;;;23.50;;
57651;SDS011;43480;53.116;6.734;2024-03-08T03:41:38;42.25;;;24.42;;
57651;SDS011;43480;53.116;6.734;2024-03-08T03:44:04;45.10;;;26.42;;
57651;SDS011;43480;53.116;6.734;2024-03-08T03:46:33;38.78;;;21.85;;
57651;SDS011;43480;53.116;6.734;2024-03-08T03:48:59;38.42;;;23.45;;
57651;SDS011;43480;53.116;6.734;2024-03-08T03:51:25;47.53;;;26.65;;
57651;SDS011;43480;53.116;6.734;2024-03-08T03:53:51;44.97;;;24.40;;
57651;SDS011;43480;53.116;6.734;2024-03-08T03:56:18;40.05;;;23.80;;
57651;SDS011;43480;53.116;6.734;2024-03-08T03:58:44;45.25;;;24.50;;
57651;SDS011;43480;53.116;6.734;2024-03-08T04:01:10;43.03;;;24.35;;
57651;SDS011;43480;53.116;6.734;2024-03-08T04:03:36;41.92;;;23.77;;
57651;SDS011;43480;53.116;6.734;2024-03-08T04:06:03;45.50;;;25.20;;
57651;SDS011;43480;53.116;6.734;2024-03-08T04:08:29;44.15;;;24.35;;
57651;SDS011;43480;53.116;6.734;2024-03-08T04:10:56;41.80;;;24.00;;
57651;SDS011;43480;53.116;6.734;2024-03-08T04:13:23;43.85;;;25.70;;
57651;SDS011;43480;53.116;6.734;2024-03-08T04:15:49;45.30;;;23.65;;
57651;SDS011;43480;53.116;6.734;2024-03-08T04:18:15;39.72;;;24.50;;
57651;SDS011;43480;53.116;6.734;2024-03-08T04:20:40;43.15;;;24.15;;
57651;SDS011;43480;53.116;6.734;2024-03-08T04:23:06;43.95;;;23.67;;
57651;SDS011;43480;53.116;6.734;2024-03-08T04:25:32;44.28;;;25.42;;
57651;SDS011;43480;53.116;6.734;2024-03-08T04:27:58;45.40;;;23.77;;
57651;SDS011;43480;53.116;6.734;2024-03-08T04:30:24;47.72;;;23.50;;
57651;SDS011;43480;53.116;6.734;2024-03-08T04:32:50;43.65;;;23.77;;
57651;SDS011;43480;53.116;6.734;2024-03-08T04:35:16;37.83;;;22.15;;
57651;SDS011;43480;53.116;6.734;2024-03-08T04:37:41;44.28;;;23.77;;
57651;SDS011;43480;53.116;6.734;2024-03-08T04:40:07;38.08;;;23.48;;
57651;SDS011;43480;53.116;6.734;2024-03-08T04:42:33;37.58;;;21.58;;
57651;SDS011;43480;53.116;6.734;2024-03-08T04:45:00;47.92;;;23.00;;
57651;SDS011;43480;53.116;6.734;2024-03-08T04:47:26;42.47;;;23.77;;
57651;SDS011;43480;53.116;6.734;2024-03-08T04:49:52;40.08;;;23.67;;
57651;SDS011;43480;53.116;6.734;2024-03-08T04:52:18;39.63;;;23.35;;
57651;SDS011;43480;53.116;6.734;2024-03-08T04:54:44;37.05;;;21.55;;
57651;SDS011;43480;53.116;6.734;2024-03-08T04:57:10;36.35;;;22.58;;
57651;SDS011;43480;53.116;6.734;2024-03-08T04:59:36;38.95;;;21.60;;
57651;SDS011;43480;53.116;6.734;2024-03-08T05:02:02;38.55;;;23.55;;
57651;SDS011;43480;53.116;6.734;2024-03-08T05:04:28;38.65;;;23.00;;
57651;SDS011;43480;53.116;6.734;2024-03-08T05:06:54;42.53;;;22.60;;
57651;SDS011;43480;53.116;6.734;2024-03-08T05:09:20;40.88;;;23.85;;
57651;SDS011;43480;53.116;6.734;2024-03-08T05:11:46;37.80;;;21.98;;
57651;SDS011;43480;53.116;6.734;2024-03-08T05:14:13;38.40;;;21.73;;
57651;SDS011;43480;53.116;6.734;2024-03-08T05:16:43;41.03;;;23.90;;
57651;SDS011;43480;53.116;6.734;2024-03-08T05:19:13;40.45;;;24.13;;
57651;SDS011;43480;53.116;6.734;2024-03-08T05:21:43;37.17;;;23.02;;
57651;SDS011;43480;53.116;6.734;2024-03-08T05:24:09;40.75;;;24.05;;
57651;SDS011;43480;53.116;6.734;2024-03-08T05:26:35;45.83;;;24.58;;
57651;SDS011;43480;53.116;6.734;2024-03-08T05:29:02;38.33;;;23.38;;
57651;SDS011;43480;53.116;6.734;2024-03-08T05:31:28;39.80;;;23.83;;
57651;SDS011;43480;53.116;6.734;2024-03-08T05:33:56;40.85;;;24.73;;
57651;SDS011;43480;53.116;6.734;2024-03-08T05:36:21;44.88;;;23.95;;
57651;SDS011;43480;53.116;6.734;2024-03-08T05:38:47;38.45;;;24.42;;
57651;SDS011;43480;53.116;6.734;2024-03-08T05:41:15;39.10;;;22.88;;
57651;SDS011;43480;53.116;6.734;2024-03-08T05:43:42;41.00;;;21.70;;
57651;SDS011;43480;53.116;6.734;2024-03-08T05:46:09;37.95;;;21.83;;
57651;SDS011;43480;53.116;6.734;2024-03-08T05:48:36;39.15;;;23.00;;
57651;SDS011;43480;53.116;6.734;2024-03-08T05:51:03;44.35;;;24.85;;
57651;SDS011;43480;53.116;6.734;2024-03-08T05:53:29;38.33;;;20.98;;
57651;SDS011;43480;53.116;6.734;2024-03-08T05:55:58;42.17;;;22.55;;
57651;SDS011;43480;53.116;6.734;2024-03-08T05:58:24;40.92;;;23.00;;
57651;SDS011;43480;53.116;6.734;2024-03-08T06:00:50;43.20;;;22.63;;
57651;SDS011;43480;53.116;6.734;2024-03-08T06:03:15;37.92;;;21.63;;
57651;SDS011;43480;53.116;6.734;2024-03-08T06:05:41;35.72;;;21.13;;
57651;SDS011;43480;53.116;6.734;2024-03-08T06:08:07;40.03;;;23.35;;
57651;SDS011;43480;53.116;6.734;2024-03-08T06:10:33;39.15;;;24.92;;
57651;SDS011;43480;53.116;6.734;2024-03-08T06:12:59;36.75;;;22.13;;
57651;SDS011;43480;53.116;6.734;2024-03-08T06:15:26;38.42;;;22.50;;
57651;SDS011;43480;53.116;6.734;2024-03-08T06:17:52;35.85;;;21.45;;
57651;SDS011;43480;53.116;6.734;2024-03-08T06:20:18;39.92;;;21.40;;
57651;SDS011;43480;53.116;6.734;2024-03-08T06:22:44;41.80;;;22.98;;
57651;SDS011;43480;53.116;6.734;2024-03-08T06:25:13;38.60;;;21.10;;
57651;SDS011;43480;53.116;6.734;2024-03-08T06:27:40;37.80;;;22.25;;
57651;SDS011;43480;53.116;6.734;2024-03-08T06:30:07;38.75;;;21.98;;
57651;SDS011;43480;53.116;6.734;2024-03-08T06:32:35;35.55;;;22.52;;
57651;SDS011;43480;53.116;6.734;2024-03-08T06:35:04;40.72;;;22.95;;
57651;SDS011;43480;53.116;6.734;2024-03-08T06:37:32;44.22;;;22.63;;
57651;SDS011;43480;53.116;6.734;2024-03-08T06:39:58;37.83;;;22.02;;
57651;SDS011;43480;53.116;6.734;2024-03-08T06:42:24;37.10;;;22.27;;
57651;SDS011;43480;53.116;6.734;2024-03-08T06:44:49;36.50;;;20.92;;
57651;SDS011;43480;53.116;6.734;2024-03-08T06:47:15;34.00;;;20.27;;
57651;SDS011;43480;53.116;6.734;2024-03-08T06:49:44;35.50;;;21.20;;
57651;SDS011;43480;53.116;6.734;2024-03-08T06:52:10;41.53;;;22.67;;
57651;SDS011;43480;53.116;6.734;2024-03-08T06:54:36;37.13;;;21.63;;
57651;SDS011;43480;53.116;6.734;2024-03-08T06:57:05;35.22;;;20.67;;
57651;SDS011;43480;53.116;6.734;2024-03-08T06:59:31;39.55;;;21.30;;
57651;SDS011;43480;53.116;6.734;2024-03-08T07:01:57;36.25;;;21.70;;
57651;SDS011;43480;53.116;6.734;2024-03-08T07:04:24;40.58;;;21.13;;
57651;SDS011;43480;53.116;6.734;2024-03-08T07:06:55;40.50;;;23.55;;
57651;SDS011;43480;53.116;6.734;2024-03-08T07:09:21;35.90;;;22.83;;
57651;SDS011;43480;53.116;6.734;2024-03-08T07:11:47;38.05;;;22.23;;
57651;SDS011;43480;53.116;6.734;2024-03-08T07:14:18;34.13;;;20.98;;
57651;SDS011;43480;53.116;6.734;2024-03-08T07:16:44;41.83;;;23.73;;
57651;SDS011;43480;53.116;6.734;2024-03-08T07:19:09;36.25;;;21.27;;
57651;SDS011;43480;53.116;6.734;2024-03-08T07:21:35;39.63;;;21.23;;
57651;SDS011;43480;53.116;6.734;2024-03-08T07:24:01;35.88;;;20.98;;
57651;SDS011;43480;53.116;6.734;2024-03-08T07:26:27;33.47;;;21.13;;
57651;SDS011;43480;53.116;6.734;2024-03-08T07:28:53;40.80;;;22.45;;
57651;SDS011;43480;53.116;6.734;2024-03-08T07:31:22;43.05;;;23.02;;
57651;SDS011;43480;53.116;6.734;2024-03-08T07:33:50;35.40;;;21.58;;
57651;SDS011;43480;53.116;6.734;2024-03-08T07:36:18;37.33;;;22.33;;
57651;SDS011;43480;53.116;6.734;2024-03-08T07:38:44;39.25;;;22.38;;
57651;SDS011;43480;53.116;6.734;2024-03-08T07:41:15;36.85;;;22.27;;
57651;SDS011;43480;53.116;6.734;2024-03-08T07:43:41;35.58;;;23.08;;
57651;SDS011;43480;53.116;6.734;2024-03-08T07:46:07;36.03;;;22.27;;
57651;SDS011;43480;53.116;6.734;2024-03-08T07:48:35;39.80;;;22.08;;
57651;SDS011;43480;53.116;6.734;2024-03-08T07:51:05;37.28;;;22.00;;
57651;SDS011;43480;53.116;6.734;2024-03-08T07:53:31;41.55;;;23.15;;
57651;SDS011;43480;53.116;6.734;2024-03-08T07:55:57;36.53;;;20.85;;
57651;SDS011;43480;53.116;6.734;2024-03-08T07:58:22;37.47;;;22.25;;
57651;SDS011;43480;53.116;6.734;2024-03-08T08:00:48;34.70;;;21.30;;
57651;SDS011;43480;53.116;6.734;2024-03-08T08:03:14;37.50;;;22.13;;
57651;SDS011;43480;53.116;6.734;2024-03-08T08:05:41;35.92;;;22.65;;
57651;SDS011;43480;53.116;6.734;2024-03-08T08:08:07;33.08;;;22.20;;
57651;SDS011;43480;53.116;6.734;2024-03-08T08:10:35;42.00;;;23.58;;
57651;SDS011;43480;53.116;6.734;2024-03-08T08:13:02;40.05;;;22.42;;
57651;SDS011;43480;53.116;6.734;2024-03-08T08:15:29;37.42;;;22.50;;
57651;SDS011;43480;53.116;6.734;2024-03-08T08:17:55;36.50;;;22.50;;
57651;SDS011;43480;53.116;6.734;2024-03-08T08:20:21;35.55;;;22.42;;
57651;SDS011;43480;53.116;6.734;2024-03-08T08:22:48;36.03;;;23.25;;
57651;SDS011;43480;53.116;6.734;2024-03-08T08:25:14;36.50;;;22.85;;
57651;SDS011;43480;53.116;6.734;2024-03-08T08:27:41;40.58;;;22.75;;
57651;SDS011;43480;53.116;6.734;2024-03-08T08:30:10;41.00;;;24.33;;
57651;SDS011;43480;53.116;6.734;2024-03-08T08:32:36;37.85;;;24.52;;
57651;SDS011;43480;53.116;6.734;2024-03-08T08:35:04;36.90;;;23.10;;
57651;SDS011;43480;53.116;6.734;2024-03-08T08:37:31;38.45;;;22.35;;
57651;SDS011;43480;53.116;6.734;2024-03-08T08:39:57;41.58;;;24.67;;
57651;SDS011;43480;53.116;6.734;2024-03-08T08:42:23;36.60;;;23.10;;
57651;SDS011;43480;53.116;6.734;2024-03-08T08:44:50;36.45;;;22.30;;
57651;SDS011;43480;53.116;6.734;2024-03-08T08:47:17;41.17;;;24.17;;
57651;SDS011;43480;53.116;6.734;2024-03-08T08:49:44;40.25;;;22.65;;
57651;SDS011;43480;53.116;6.734;2024-03-08T08:52:11;35.30;;;22.88;;
57651;SDS011;43480;53.116;6.734;2024-03-08T08:54:38;38.25;;;23.70;;
57651;SDS011;43480;53.116;6.734;2024-03-08T08:57:03;41.50;;;24.73;;
57651;SDS011;43480;53.116;6.734;2024-03-08T08:59:35;34.95;;;23.02;;
57651;SDS011;43480;53.116;6.734;2024-03-08T09:02:02;41.95;;;25.17;;
57651;SDS011;43480;53.116;6.734;2024-03-08T09:04:29;39.03;;;24.13;;
57651;SDS011;43480;53.116;6.734;2024-03-08T09:06:56;39.00;;;24.05;;
57651;SDS011;43480;53.116;6.734;2024-03-08T09:09:22;37.15;;;23.67;;
57651;SDS011;43480;53.116;6.734;2024-03-08T09:11:48;35.58;;;22.98;;
57651;SDS011;43480;53.116;6.734;2024-03-08T09:14:15;38.28;;;23.05;;
57651;SDS011;43480;53.116;6.734;2024-03-08T09:16:40;34.53;;;22.38;;
57651;SDS011;43480;53.116;6.734;2024-03-08T09:19:06;38.25;;;24.58;;
57651;SDS011;43480;53.116;6.734;2024-03-08T09:21:33;39.22;;;23.65;;
57651;SDS011;43480;53.116;6.734;2024-03-08T09:24:00;37.95;;;24.77;;
57651;SDS011;43480;53.116;6.734;2024-03-08T09:26:26;37.55;;;24.13;;
57651;SDS011;43480;53.116;6.734;2024-03-08T09:28:52;39.22;;;24.85;;
57651;SDS011;43480;53.116;6.734;2024-03-08T09:31:20;37.42;;;23.48;;
57651;SDS011;43480;53.116;6.734;2024-03-08T09:33:47;38.08;;;23.58;;
57651;SDS011;43480;53.116;6.734;2024-03-08T09:36:13;38.22;;;24.38;;
57651;SDS011;43480;53.116;6.734;2024-03-08T09:38:39;35.28;;;23.10;;
57651;SDS011;43480;53.116;6.734;2024-03-08T09:41:05;34.95;;;23.60;;
57651;SDS011;43480;53.116;6.734;2024-03-08T09:43:32;36.50;;;23.30;;
57651;SDS011;43480;53.116;6.734;2024-03-08T09:45:58;38.90;;;26.13;;
57651;SDS011;43480;53.116;6.734;2024-03-08T09:48:25;40.72;;;23.90;;
57651;SDS011;43480;53.116;6.734;2024-03-08T09:50:51;41.13;;;23.23;;
57651;SDS011;43480;53.116;6.734;2024-03-08T09:53:17;34.70;;;22.55;;
57651;SDS011;43480;53.116;6.734;2024-03-08T09:55:43;37.05;;;24.30;;
57651;SDS011;43480;53.116;6.734;2024-03-08T09:58:13;35.08;;;23.45;;
57651;SDS011;43480;53.116;6.734;2024-03-08T10:00:46;35.10;;;24.80;;
57651;SDS011;43480;53.116;6.734;2024-03-08T10:03:12;34.00;;;22.98;;
57651;SDS011;43480;53.116;6.734;2024-03-08T10:05:40;34.40;;;23.98;;
57651;SDS011;43480;53.116;6.734;2024-03-08T10:08:06;38.28;;;22.10;;
57651;SDS011;43480;53.116;6.734;2024-03-08T10:10:36;32.35;;;22.05;;
57651;SDS011;43480;53.116;6.734;2024-03-08T10:13:06;33.05;;;23.42;;
57651;SDS011;43480;53.116;6.734;2024-03-08T10:15:32;39.67;;;25.92;;
57651;SDS011;43480;53.116;6.734;2024-03-08T10:18:00;32.60;;;22.67;;
57651;SDS011;43480;53.116;6.734;2024-03-08T10:20:30;33.60;;;23.55;;
57651;SDS011;43480;53.116;6.734;2024-03-08T10:22:59;40.38;;;24.33;;
57651;SDS011;43480;53.116;6.734;2024-03-08T10:25:25;36.75;;;23.13;;
57651;SDS011;43480;53.116;6.734;2024-03-08T10:27:51;33.60;;;23.20;;
57651;SDS011;43480;53.116;6.734;2024-03-08T10:30:17;34.92;;;24.38;;
57651;SDS011;43480;53.116;6.734;2024-03-08T10:32:45;36.28;;;23.42;;
57651;SDS011;43480;53.116;6.734;2024-03-08T10:35:11;40.17;;;24.98;;
57651;SDS011;43480;53.116;6.734;2024-03-08T10:37:58;32.13;;;22.13;;
57651;SDS011;43480;53.116;6.734;2024-03-08T10:40:25;37.22;;;22.35;;
57651;SDS011;43480;53.116;6.734;2024-03-08T10:50:30;36.40;;;24.75;;
57651;SDS011;43480;53.116;6.734;2024-03-08T10:52:59;32.42;;;23.27;;
57651;SDS011;43480;53.116;6.734;2024-03-08T10:55:26;34.58;;;25.05;;
57651;SDS011;43480;53.116;6.734;2024-03-08T10:57:53;35.85;;;23.48;;
57651;SDS011;43480;53.116;6.734;2024-03-08T11:00:19;35.20;;;24.10;;
57651;SDS011;43480;53.116;6.734;2024-03-08T11:02:52;34.70;;;23.00;;
57651;SDS011;43480;53.116;6.734;2024-03-08T11:10:49;36.55;;;24.08;;
57651;SDS011;43480;53.116;6.734;2024-03-08T11:13:39;36.33;;;23.98;;
57651;SDS011;43480;53.116;6.734;2024-03-08T11:18:38;35.58;;;23.40;;
57651;SDS011;43480;53.116;6.734;2024-03-08T11:21:04;34.60;;;23.00;;
57651;SDS011;43480;53.116;6.734;2024-03-08T11:23:37;34.45;;;23.88;;
57651;SDS011;43480;53.116;6.734;2024-03-08T11:26:18;37.05;;;25.33;;
57651;SDS011;43480;53.116;6.734;2024-03-08T11:33:46;33.85;;;23.52;;
57651;SDS011;43480;53.116;6.734;2024-03-08T11:36:20;35.65;;;25.35;;
57651;SDS011;43480;53.116;6.734;2024-03-08T11:38:50;35.50;;;24.58;;
57651;SDS011;43480;53.116;6.734;2024-03-08T11:41:18;30.40;;;22.13;;
57651;SDS011;43480;53.116;6.734;2024-03-08T11:43:45;35.45;;;25.23;;
57651;SDS011;43480;53.116;6.734;2024-03-08T11:46:12;31.00;;;23.83;;
57651;SDS011;43480;53.116;6.734;2024-03-08T11:48:42;32.90;;;25.02;;
57651;SDS011;43480;53.116;6.734;2024-03-08T11:51:12;34.10;;;23.73;;
57651;SDS011;43480;53.116;6.734;2024-03-08T11:53:39;34.80;;;23.50;;
57651;SDS011;43480;53.116;6.734;2024-03-08T11:56:09;35.47;;;24.45;;
57651;SDS011;43480;53.116;6.734;2024-03-08T11:58:37;35.22;;;24.17;;
57651;SDS011;43480;53.116;6.734;2024-03-08T12:01:06;32.03;;;25.40;;
57651;SDS011;43480;53.116;6.734;2024-03-08T12:03:42;33.95;;;24.15;;
57651;SDS011;43480;53.116;6.734;2024-03-08T12:06:08;33.47;;;23.60;;
57651;SDS011;43480;53.116;6.734;2024-03-08T12:08:35;33.13;;;24.70;;
57651;SDS011;43480;53.116;6.734;2024-03-08T12:11:03;31.83;;;23.77;;
57651;SDS011;43480;53.116;6.734;2024-03-08T12:13:33;30.40;;;23.52;;
57651;SDS011;43480;53.116;6.734;2024-03-08T12:16:03;31.40;;;23.73;;
57651;SDS011;43480;53.116;6.734;2024-03-08T12:18:32;30.33;;;23.58;;
57651;SDS011;43480;53.116;6.734;2024-03-08T12:23:35;32.58;;;23.77;;
57651;SDS011;43480;53.116;6.734;2024-03-08T12:26:16;29.50;;;22.75;;
57651;SDS011;43480;53.116;6.734;2024-03-08T12:28:51;29.70;;;23.08;;
57651;SDS011;43480;53.116;6.734;2024-03-08T12:31:17;27.95;;;23.02;;
57651;SDS011;43480;53.116;6.734;2024-03-08T12:33:50;28.83;;;22.35;;
57651;SDS011;43480;53.116;6.734;2024-03-08T12:36:18;30.70;;;23.50;;
57651;SDS011;43480;53.116;6.734;2024-03-08T12:38:45;28.52;;;23.52;;
57651;SDS011;43480;53.116;6.734;2024-03-08T12:41:14;28.65;;;22.67;;
57651;SDS011;43480;53.116;6.734;2024-03-08T12:43:47;26.95;;;22.40;;
57651;SDS011;43480;53.116;6.734;2024-03-08T12:46:22;29.70;;;22.80;;
57651;SDS011;43480;53.116;6.734;2024-03-08T12:48:51;27.17;;;22.63;;
57651;SDS011;43480;53.116;6.734;2024-03-08T12:51:19;28.90;;;22.00;;
57651;SDS011;43480;53.116;6.734;2024-03-08T12:53:45;27.23;;;20.98;;
57651;SDS011;43480;53.116;6.734;2024-03-08T12:56:12;26.60;;;21.27;;
57651;SDS011;43480;53.116;6.734;2024-03-08T12:58:38;28.30;;;22.50;;
57651;SDS011;43480;53.116;6.734;2024-03-08T13:01:04;27.33;;;20.75;;
57651;SDS011;43480;53.116;6.734;2024-03-08T13:03:32;28.05;;;20.70;;
57651;SDS011;43480;53.116;6.734;2024-03-08T13:06:07;29.65;;;21.63;;
57651;SDS011;43480;53.116;6.734;2024-03-08T13:08:36;28.23;;;21.30;;
57651;SDS011;43480;53.116;6.734;2024-03-08T13:11:08;27.27;;;21.58;;
57651;SDS011;43480;53.116;6.734;2024-03-08T13:13:36;26.85;;;21.58;;
57651;SDS011;43480;53.116;6.734;2024-03-08T13:16:05;26.67;;;22.00;;
57651;SDS011;43480;53.116;6.734;2024-03-08T13:18:34;28.80;;;22.05;;
57651;SDS011;43480;53.116;6.734;2024-03-08T13:21:00;26.52;;;21.10;;
57651;SDS011;43480;53.116;6.734;2024-03-08T13:23:36;25.67;;;20.52;;
57651;SDS011;43480;53.116;6.734;2024-03-08T13:26:12;25.27;;;20.60;;
57651;SDS011;43480;53.116;6.734;2024-03-08T13:28:49;23.55;;;19.63;;
57651;SDS011;43480;53.116;6.734;2024-03-08T13:31:19;23.05;;;19.88;;
57651;SDS011;43480;53.116;6.734;2024-03-08T13:33:45;29.90;;;21.33;;
57651;SDS011;43480;53.116;6.734;2024-03-08T13:36:12;24.60;;;20.20;;
57651;SDS011;43480;53.116;6.734;2024-03-08T13:38:44;25.40;;;19.33;;
57651;SDS011;43480;53.116;6.734;2024-03-08T13:41:11;27.90;;;20.23;;
57651;SDS011;43480;53.116;6.734;2024-03-08T13:43:39;26.63;;;19.45;;
57651;SDS011;43480;53.116;6.734;2024-03-08T13:46:06;23.73;;;19.20;;
57651;SDS011;43480;53.116;6.734;2024-03-08T13:48:32;25.00;;;19.23;;
57651;SDS011;43480;53.116;6.734;2024-03-08T13:50:58;24.00;;;18.60;;
57651;SDS011;43480;53.116;6.734;2024-03-08T13:53:25;25.90;;;20.35;;
57651;SDS011;43480;53.116;6.734;2024-03-08T13:55:51;27.92;;;19.38;;
57651;SDS011;43480;53.116;6.734;2024-03-08T13:58:17;26.45;;;20.13;;
57651;SDS011;43480;53.116;6.734;2024-03-08T14:00:43;24.67;;;17.90;;
57651;SDS011;43480;53.116;6.734;2024-03-08T14:03:11;27.75;;;17.60;;
57651;SDS011;43480;53.116;6.734;2024-03-08T14:05:40;25.98;;;19.08;;
57651;SDS011;43480;53.116;6.734;2024-03-08T14:08:07;26.15;;;18.88;;
57651;SDS011;43480;53.116;6.734;2024-03-08T14:10:37;25.65;;;18.67;;
57651;SDS011;43480;53.116;6.734;2024-03-08T14:13:03;26.23;;;19.10;;
57651;SDS011;43480;53.116;6.734;2024-03-08T14:15:32;27.92;;;18.95;;
57651;SDS011;43480;53.116;6.734;2024-03-08T14:17:59;25.00;;;19.35;;
57651;SDS011;43480;53.116;6.734;2024-03-08T14:20:26;24.85;;;18.83;;
57651;SDS011;43480;53.116;6.734;2024-03-08T14:22:55;26.20;;;19.35;;
57651;SDS011;43480;53.116;6.734;2024-03-08T14:25:21;23.27;;;18.63;;
57651;SDS011;43480;53.116;6.734;2024-03-08T14:27:51;24.88;;;18.67;;
57651;SDS011;43480;53.116;6.734;2024-03-08T14:30:23;25.92;;;18.77;;
57651;SDS011;43480;53.116;6.734;2024-03-08T14:33:03;26.73;;;19.55;;
57651;SDS011;43480;53.116;6.734;2024-03-08T14:35:36;26.13;;;19.75;;
57651;SDS011;43480;53.116;6.734;2024-03-08T14:38:03;24.60;;;19.73;;
57651;SDS011;43480;53.116;6.734;2024-03-08T14:40:29;22.92;;;18.75;;
57651;SDS011;43480;53.116;6.734;2024-03-08T14:42:56;22.40;;;18.13;;
57651;SDS011;43480;53.116;6.734;2024-03-08T14:45:22;24.02;;;19.58;;
57651;SDS011;43480;53.116;6.734;2024-03-08T14:47:49;24.58;;;19.35;;